createdAt,value
2019-04-03T00:00:21.946Z,2.80
2019-04-03T00:01:21.829Z,2.70
2019-04-03T00:02:21.793Z,1.80
2019-04-03T00:03:21.751Z,2.80
2019-04-03T00:04:21.737Z,2.70
2019-04-03T00:05:21.671Z,2.50
2019-04-03T00:06:21.629Z,3.30
2019-04-03T00:07:21.591Z,2.20
2019-04-03T00:08:21.553Z,2.50
2019-04-03T00:09:21.519Z,2.80
2019-04-03T00:10:21.533Z,2.70
2019-04-03T00:11:21.432Z,2.50
2019-04-03T00:12:21.396Z,2.70
2019-04-03T00:13:21.442Z,3.40
2019-04-03T00:14:21.316Z,3.40
2019-04-03T00:15:21.277Z,2.90
2019-04-03T00:16:21.233Z,2.40
2019-04-03T00:17:21.194Z,2.00
2019-04-03T00:18:21.157Z,2.00
2019-04-03T00:19:21.155Z,2.70
2019-04-03T00:20:21.074Z,2.70
2019-04-03T00:21:21.035Z,3.70
2019-04-03T00:22:22.016Z,3.30
2019-04-03T00:23:22.370Z,2.20
2019-04-03T00:24:22.539Z,3.20
2019-04-03T00:25:22.384Z,2.50
2019-04-03T00:26:22.552Z,2.50
2019-04-03T00:27:22.237Z,3.00
2019-04-03T00:28:22.287Z,4.00
2019-04-03T00:29:22.348Z,3.50
2019-04-03T00:30:22.197Z,2.80
2019-04-03T00:31:21.604Z,3.20
2019-04-03T00:32:21.803Z,2.60
2019-04-03T00:33:23.035Z,2.40
2019-04-03T00:34:22.985Z,2.80
2019-04-03T00:35:22.953Z,4.80
2019-04-03T00:36:22.847Z,3.80
2019-04-03T00:37:21.522Z,2.80
2019-04-03T00:38:20.362Z,2.60
2019-04-03T00:39:20.318Z,2.80
2019-04-03T00:40:20.276Z,3.30
2019-04-03T00:41:20.236Z,3.50
2019-04-03T00:42:20.197Z,3.20
2019-04-03T00:43:20.158Z,3.00
2019-04-03T00:44:20.119Z,4.30
2019-04-03T00:45:20.082Z,3.40
2019-04-03T00:46:20.041Z,2.90
2019-04-03T00:47:19.999Z,2.80
2019-04-03T00:48:19.958Z,2.90
2019-04-03T00:49:19.916Z,4.10
2019-04-03T00:50:19.885Z,4.00
2019-04-03T00:51:19.840Z,3.10
2019-04-03T00:52:19.798Z,4.30
2019-04-03T00:53:19.757Z,3.10
2019-04-03T00:54:19.717Z,3.50
2019-04-03T00:55:19.701Z,2.70
2019-04-03T00:56:19.644Z,3.30
2019-04-03T00:57:19.602Z,4.60
2019-04-03T00:58:19.561Z,3.40
2019-04-03T00:59:19.640Z,3.50
2019-04-03T01:00:19.582Z,5.20
2019-04-03T01:01:19.437Z,3.00
2019-04-03T01:02:19.499Z,3.00
2019-04-03T01:03:19.376Z,2.60
2019-04-03T01:04:19.320Z,2.60
2019-04-03T01:05:19.283Z,3.50
2019-04-03T01:06:19.366Z,3.60
2019-04-03T01:07:19.199Z,2.90
2019-04-03T01:08:19.165Z,3.20
2019-04-03T01:09:19.124Z,4.60
2019-04-03T01:10:19.267Z,3.00
2019-04-03T01:11:19.101Z,3.70
2019-04-03T01:12:19.007Z,2.60
2019-04-03T01:13:18.959Z,3.10
2019-04-03T01:14:18.917Z,3.40
2019-04-03T01:15:18.879Z,4.70
2019-04-03T01:16:18.844Z,3.00
2019-04-03T01:17:18.804Z,3.00
2019-04-03T01:18:18.795Z,4.10
2019-04-03T01:19:18.722Z,3.20
2019-04-03T01:20:18.690Z,4.00
2019-04-03T01:21:18.784Z,3.30
2019-04-03T01:22:18.604Z,3.30
2019-04-03T01:23:18.562Z,4.00
2019-04-03T01:24:18.693Z,3.20
2019-04-03T01:25:18.483Z,3.60
2019-04-03T01:26:18.439Z,4.80
2019-04-03T01:27:18.401Z,3.40
2019-04-03T01:28:18.365Z,2.60
2019-04-03T01:29:18.325Z,3.30
2019-04-03T01:30:18.285Z,3.30
2019-04-03T01:31:18.244Z,3.60
2019-04-03T01:32:18.201Z,3.20
2019-04-03T01:33:18.161Z,4.10
2019-04-03T01:34:18.171Z,3.70
2019-04-03T01:35:18.165Z,3.10
2019-04-03T01:36:18.228Z,3.90
2019-04-03T01:37:19.186Z,4.30
2019-04-03T01:38:19.410Z,3.20
2019-04-03T01:39:20.367Z,3.90
2019-04-03T01:40:20.170Z,4.90
2019-04-03T01:41:20.212Z,4.40
2019-04-03T01:42:17.806Z,4.30
2019-04-03T01:43:17.794Z,4.70
2019-04-03T01:44:17.724Z,4.00
2019-04-03T01:45:17.680Z,3.90
2019-04-03T01:46:17.643Z,5.10
2019-04-03T01:47:17.786Z,3.50
2019-04-03T01:48:17.568Z,6.30
2019-04-03T01:49:17.526Z,4.00
2019-04-03T01:50:17.486Z,3.40
2019-04-03T01:51:17.564Z,3.50
2019-04-03T01:52:17.403Z,4.20
2019-04-03T01:53:17.361Z,3.70
2019-04-03T01:54:17.327Z,3.70
2019-04-03T01:55:17.284Z,3.70
2019-04-03T01:56:17.244Z,3.70
2019-04-03T01:57:17.251Z,3.90
2019-04-03T01:58:17.163Z,4.40
2019-04-03T01:59:17.327Z,4.50
2019-04-03T02:00:17.084Z,3.90
2019-04-03T02:01:17.049Z,3.90
2019-04-03T02:02:17.005Z,3.50
2019-04-03T02:03:16.967Z,3.80
2019-04-03T02:04:16.925Z,4.50
2019-04-03T02:05:16.880Z,3.40
2019-04-03T02:06:16.883Z,3.50
2019-04-03T02:07:16.803Z,4.10
2019-04-03T02:08:16.924Z,3.50
2019-04-03T02:09:16.796Z,3.60
2019-04-03T02:10:17.768Z,4.00
2019-04-03T02:11:18.361Z,4.00
2019-04-03T02:12:17.866Z,3.80
2019-04-03T02:13:16.567Z,3.80
2019-04-03T02:14:16.529Z,4.10
2019-04-03T02:15:16.485Z,4.00
2019-04-03T02:16:16.444Z,3.40
2019-04-03T02:17:16.400Z,3.50
2019-04-03T02:18:16.361Z,3.90
2019-04-03T02:19:16.322Z,4.50
2019-04-03T02:20:16.284Z,3.70
2019-04-03T02:21:16.399Z,4.70
2019-04-03T02:22:16.206Z,4.40
2019-04-03T02:23:16.163Z,4.20
2019-04-03T02:24:16.123Z,3.70
2019-04-03T02:25:16.219Z,3.70
2019-04-03T02:26:16.047Z,3.90
2019-04-03T02:27:16.004Z,4.10
2019-04-03T02:28:15.962Z,3.60
2019-04-03T02:29:15.922Z,3.70
2019-04-03T02:30:16.091Z,5.40
2019-04-03T02:31:18.688Z,4.60
2019-04-03T02:32:15.805Z,3.40
2019-04-03T02:33:15.768Z,3.70
2019-04-03T02:34:15.729Z,4.70
2019-04-03T02:35:15.884Z,4.30
2019-04-03T02:36:15.647Z,3.70
2019-04-03T02:37:16.994Z,3.80
2019-04-03T02:38:15.883Z,4.00
2019-04-03T02:39:15.523Z,4.20
2019-04-03T02:40:15.509Z,3.70
2019-04-03T02:41:15.691Z,3.70
2019-04-03T02:42:15.401Z,6.50
2019-04-03T02:43:15.546Z,3.70
2019-04-03T02:44:18.000Z,3.80
2019-04-03T02:45:15.397Z,3.90
2019-04-03T02:46:15.250Z,4.30
2019-04-03T02:47:15.250Z,4.80
2019-04-03T02:48:15.247Z,5.50
2019-04-03T02:49:15.141Z,4.40
2019-04-03T02:50:15.420Z,4.00
2019-04-03T02:51:15.058Z,5.10
2019-04-03T02:52:15.004Z,3.30
2019-04-03T02:53:14.966Z,4.40
2019-04-03T02:54:14.927Z,3.80
2019-04-03T02:55:14.884Z,5.40
2019-04-03T02:56:14.843Z,4.80
2019-04-03T02:57:17.485Z,3.70
2019-04-03T02:58:14.880Z,6.70
2019-04-03T02:59:14.723Z,5.40
2019-04-03T03:00:14.902Z,4.30
2019-04-03T03:01:14.641Z,3.70
2019-04-03T03:02:14.682Z,5.00
2019-04-03T03:03:17.277Z,3.90
2019-04-03T03:04:14.524Z,3.90
2019-04-03T03:05:14.511Z,3.60
2019-04-03T03:06:14.444Z,4.30
2019-04-03T03:07:14.424Z,3.90
2019-04-03T03:08:14.628Z,4.60
2019-04-03T03:09:14.553Z,4.60
2019-04-03T03:10:14.277Z,3.80
2019-04-03T03:11:14.238Z,3.90
2019-04-03T03:12:14.202Z,4.10
2019-04-03T03:13:14.162Z,3.40
2019-04-03T03:14:14.116Z,4.00
2019-04-03T03:15:14.079Z,3.80
2019-04-03T03:16:14.566Z,3.80
2019-04-03T03:17:14.362Z,4.80
2019-04-03T03:18:13.962Z,3.60
2019-04-03T03:19:22.883Z,5.70
2019-04-03T03:21:18.323Z,3.50
2019-04-03T03:22:18.559Z,4.20
2019-04-03T03:23:18.579Z,4.50
2019-04-03T03:37:13.391Z,4.20
2019-04-03T03:38:12.953Z,4.60
2019-04-03T03:39:12.900Z,7.90
2019-04-03T03:40:15.421Z,4.50
2019-04-03T03:41:13.181Z,4.50
2019-04-03T03:42:12.769Z,4.10
2019-04-03T03:43:12.732Z,6.90
2019-04-03T03:44:12.689Z,5.40
2019-04-03T03:45:12.644Z,4.50
2019-04-03T03:46:12.601Z,5.00
2019-04-03T03:47:12.567Z,3.90
2019-04-03T03:48:12.523Z,4.90
2019-04-03T03:49:16.096Z,4.80
2019-04-03T03:50:12.788Z,4.90
2019-04-03T03:51:12.395Z,3.90
2019-04-03T03:52:12.354Z,6.30
2019-04-03T03:53:13.103Z,4.10
2019-04-03T03:54:12.273Z,4.00
2019-04-03T03:55:12.465Z,5.20
2019-04-03T03:56:12.194Z,5.30
2019-04-03T03:57:12.182Z,4.90
2019-04-03T03:58:13.402Z,5.00
2019-04-03T03:59:12.074Z,4.40
2019-04-03T04:00:12.346Z,5.20
2019-04-03T04:01:11.991Z,3.90
2019-04-03T04:02:11.953Z,4.70
2019-04-03T04:03:12.076Z,4.50
2019-04-03T04:04:14.172Z,5.10
2019-04-03T04:05:12.332Z,4.40
2019-04-03T04:06:11.783Z,4.40
2019-04-03T04:07:11.747Z,4.80
2019-04-03T04:08:12.399Z,4.20
2019-04-03T04:09:15.475Z,5.10
2019-04-03T04:10:11.635Z,4.30
2019-04-03T04:11:11.580Z,4.20
2019-04-03T04:12:11.541Z,4.50
2019-04-03T04:13:15.110Z,4.30
2019-04-03T04:14:11.458Z,4.90
2019-04-03T04:15:11.429Z,4.70
2019-04-03T04:16:11.647Z,4.70
2019-04-03T04:17:15.804Z,4.80
2019-04-03T04:18:13.860Z,4.80
2019-04-03T04:19:11.261Z,4.80
2019-04-03T04:20:11.291Z,4.90
2019-04-03T04:21:12.183Z,4.50
2019-04-03T04:22:11.140Z,6.30
2019-04-03T04:23:11.097Z,6.40
2019-04-03T04:24:11.059Z,5.60
2019-04-03T04:25:11.014Z,4.70
2019-04-03T04:26:10.973Z,4.30
2019-04-03T04:27:10.957Z,6.00
2019-04-03T04:28:10.897Z,5.90
2019-04-03T04:29:11.429Z,5.40
2019-04-03T04:30:12.393Z,5.60
2019-04-03T04:31:12.636Z,4.70
2019-04-03T04:32:10.737Z,4.70
2019-04-03T04:33:10.699Z,4.50
2019-04-03T04:34:10.655Z,5.30
2019-04-03T04:35:11.218Z,4.50
2019-04-03T04:36:10.572Z,5.90
2019-04-03T04:37:10.531Z,6.90
2019-04-03T04:38:10.489Z,6.20
2019-04-03T04:39:10.500Z,4.80
2019-04-03T04:40:10.414Z,5.00
2019-04-03T04:41:10.371Z,5.90
2019-04-03T04:42:10.333Z,5.30
2019-04-03T04:43:10.288Z,6.20
2019-04-03T04:44:10.465Z,4.70
2019-04-03T04:45:11.882Z,5.90
2019-04-03T04:46:10.171Z,4.50
2019-04-03T04:47:10.131Z,4.90
2019-04-03T04:48:10.090Z,4.80
2019-04-03T04:49:10.046Z,5.00
2019-04-03T04:50:10.005Z,6.00
2019-04-03T04:51:09.971Z,4.90
2019-04-03T04:52:09.929Z,5.00
2019-04-03T04:53:09.918Z,5.70
2019-04-03T04:54:09.850Z,5.20
2019-04-03T04:55:09.804Z,5.70
2019-04-03T04:56:09.768Z,6.00
2019-04-03T04:57:09.724Z,6.30
2019-04-03T04:58:11.557Z,7.00
2019-04-03T04:59:09.649Z,5.50
2019-04-03T05:00:09.755Z,6.00
2019-04-03T05:01:09.566Z,6.10
2019-04-03T05:02:09.528Z,5.70
2019-04-03T05:03:09.539Z,5.90
2019-04-03T05:04:09.443Z,5.70
2019-04-03T05:05:09.643Z,6.60
2019-04-03T05:06:09.367Z,6.20
2019-04-03T05:07:09.349Z,6.20
2019-04-03T05:08:09.283Z,6.20
2019-04-03T05:09:09.241Z,6.80
2019-04-03T05:10:09.203Z,7.00
2019-04-03T05:11:09.310Z,7.40
2019-04-03T05:12:09.736Z,7.00
2019-04-03T05:13:09.082Z,6.90
2019-04-03T05:14:09.045Z,7.30
2019-04-03T05:15:08.998Z,7.60
2019-04-03T05:16:08.962Z,6.50
2019-04-03T05:17:08.919Z,5.80
2019-04-03T05:18:08.878Z,7.30
2019-04-03T05:19:14.742Z,6.80
2019-04-03T05:20:08.801Z,6.20
2019-04-03T05:21:08.758Z,6.70
2019-04-03T05:22:08.715Z,5.60
2019-04-03T05:23:08.682Z,5.00
2019-04-03T05:24:13.157Z,5.80
2019-04-03T05:25:08.597Z,4.60
2019-04-03T05:26:08.700Z,5.30
2019-04-03T05:27:08.514Z,4.20
2019-04-03T05:28:08.477Z,4.30
2019-04-03T05:29:08.567Z,4.10
2019-04-03T05:30:08.393Z,4.80
2019-04-03T05:31:08.884Z,3.90
2019-04-03T05:32:10.672Z,5.80
2019-04-03T05:33:10.634Z,3.90
2019-04-03T05:34:08.241Z,4.30
2019-04-03T05:35:08.390Z,5.10
2019-04-03T05:36:08.152Z,4.30
2019-04-03T05:37:10.747Z,4.30
2019-04-03T05:38:08.078Z,4.00
2019-04-03T05:39:08.105Z,4.10
2019-04-03T05:40:07.990Z,4.30
2019-04-03T05:41:07.949Z,3.70
2019-04-03T05:42:07.907Z,4.50
2019-04-03T05:43:08.000Z,3.70
2019-04-03T05:44:07.832Z,4.20
2019-04-03T05:45:07.919Z,3.80
2019-04-03T05:46:07.858Z,5.70
2019-04-03T05:47:08.450Z,4.70
2019-04-03T05:48:12.605Z,4.70
2019-04-03T05:49:07.998Z,3.80
2019-04-03T05:50:07.792Z,3.70
2019-04-03T05:51:07.548Z,4.40
2019-04-03T05:52:07.507Z,3.50
2019-04-03T05:53:07.466Z,4.20
2019-04-03T05:54:07.975Z,4.80
2019-04-03T05:55:08.040Z,4.90
2019-04-03T05:56:07.352Z,4.10
2019-04-03T05:57:07.356Z,4.40
2019-04-03T05:58:07.265Z,4.30
2019-04-03T05:59:07.220Z,4.30
2019-04-03T06:00:07.552Z,4.10
2019-04-03T06:01:08.785Z,3.80
2019-04-03T06:02:14.625Z,4.20
2019-04-03T06:03:07.066Z,4.40
2019-04-03T06:04:09.359Z,4.00
2019-04-03T06:05:07.248Z,4.30
2019-04-03T06:06:07.195Z,4.70
2019-04-03T06:07:06.902Z,4.50
2019-04-03T06:08:06.980Z,4.70
2019-04-03T06:09:07.160Z,4.20
2019-04-03T06:10:06.780Z,5.20
2019-04-03T06:11:08.857Z,5.20
2019-04-03T06:12:08.853Z,4.10
2019-04-03T06:13:06.823Z,4.80
2019-04-03T06:14:08.648Z,4.00
2019-04-03T06:15:09.057Z,5.00
2019-04-03T06:16:06.541Z,3.80
2019-04-03T06:17:06.554Z,4.20
2019-04-03T06:18:06.458Z,4.30
2019-04-03T06:19:07.280Z,3.80
2019-04-03T06:20:06.422Z,5.00
2019-04-03T06:21:06.329Z,4.10
2019-04-03T06:22:06.288Z,6.00
2019-04-03T06:23:06.361Z,4.40
2019-04-03T06:24:06.324Z,5.00
2019-04-03T06:25:06.173Z,4.30
2019-04-03T06:26:06.153Z,4.10
2019-04-03T06:27:08.959Z,5.80
2019-04-03T06:28:06.051Z,5.10
2019-04-03T06:29:07.541Z,4.70
2019-04-03T06:30:06.256Z,3.70
2019-04-03T06:31:08.094Z,4.90
2019-04-03T06:32:06.409Z,4.40
2019-04-03T06:33:05.995Z,4.50
2019-04-03T06:34:07.634Z,4.00
2019-04-03T06:35:05.768Z,3.90
2019-04-03T06:36:05.726Z,3.30
2019-04-03T06:37:05.802Z,4.60
2019-04-03T06:38:05.647Z,4.60
2019-04-03T06:39:05.610Z,3.50
2019-04-03T06:40:05.562Z,4.20
2019-04-03T06:41:07.914Z,3.60
2019-04-03T06:42:05.485Z,3.80
2019-04-03T06:43:05.437Z,3.50
2019-04-03T06:44:05.401Z,4.10
2019-04-03T06:45:05.359Z,3.30
2019-04-03T06:46:05.316Z,3.40
2019-04-03T06:47:05.321Z,3.70
2019-04-03T06:48:05.572Z,3.30
2019-04-03T06:49:07.953Z,3.50
2019-04-03T06:50:05.159Z,3.40
2019-04-03T06:51:05.115Z,4.00
2019-04-03T06:52:05.075Z,4.60
2019-04-03T06:53:05.208Z,3.50
2019-04-03T06:54:07.159Z,3.00
2019-04-03T06:55:04.959Z,3.30
2019-04-03T06:56:07.825Z,4.10
2019-04-03T06:57:04.871Z,3.40
2019-04-03T06:58:04.831Z,3.20
2019-04-03T06:59:04.988Z,3.30
2019-04-03T07:00:04.753Z,3.20
2019-04-03T07:01:04.736Z,3.40
2019-04-03T07:02:04.675Z,3.20
2019-04-03T07:03:04.644Z,3.50
2019-04-03T07:04:06.256Z,3.20
2019-04-03T07:05:04.546Z,3.50
2019-04-03T07:06:04.507Z,3.00
2019-04-03T07:07:04.470Z,3.10
2019-04-03T07:08:05.043Z,3.10
2019-04-03T07:09:05.216Z,3.10
2019-04-03T07:10:04.760Z,3.20
2019-04-03T07:11:04.305Z,4.30
2019-04-03T07:12:04.265Z,3.10
2019-04-03T07:13:04.228Z,3.00
2019-04-03T07:14:04.187Z,2.60
2019-04-03T07:15:04.366Z,2.70
2019-04-03T07:16:04.109Z,2.80
2019-04-03T07:17:05.912Z,2.70
2019-04-03T07:18:05.840Z,2.90
2019-04-03T07:19:03.985Z,2.80
2019-04-03T07:20:13.420Z,2.90
2019-04-03T07:21:03.904Z,2.50
2019-04-03T07:22:03.861Z,3.10
2019-04-03T07:23:03.820Z,2.70
2019-04-03T07:24:03.781Z,4.50
2019-04-03T07:25:03.914Z,2.90
2019-04-03T07:26:05.218Z,2.50
2019-04-03T07:27:06.064Z,2.60
2019-04-03T07:28:03.625Z,2.70
2019-04-03T07:29:03.576Z,2.90
2019-04-03T07:30:03.594Z,2.80
2019-04-03T07:31:03.498Z,3.00
2019-04-03T07:32:03.486Z,2.50
2019-04-03T07:33:05.580Z,2.80
2019-04-03T07:34:03.666Z,2.80
2019-04-03T07:35:08.972Z,2.80
2019-04-03T07:36:03.295Z,2.60
2019-04-03T07:37:03.257Z,2.70
2019-04-03T07:38:03.214Z,2.30
2019-04-03T07:39:03.175Z,3.50
2019-04-03T07:40:03.332Z,2.90
2019-04-03T07:41:03.098Z,4.00
2019-04-03T07:42:03.070Z,2.90
2019-04-03T07:43:03.013Z,4.30
2019-04-03T07:44:03.226Z,2.60
2019-04-03T07:45:03.110Z,2.50
2019-04-03T07:46:03.431Z,2.70
2019-04-03T07:47:04.274Z,3.10
2019-04-03T07:48:06.097Z,2.60
2019-04-03T07:49:02.769Z,3.10
2019-04-03T07:50:02.913Z,2.90
2019-04-03T07:51:02.696Z,2.60
2019-04-03T07:52:02.653Z,2.80
2019-04-03T07:53:02.612Z,2.60
2019-04-03T07:54:04.321Z,2.70
2019-04-03T07:55:02.529Z,2.80
2019-04-03T07:56:02.494Z,2.70
2019-04-03T07:57:02.447Z,2.50
2019-04-03T07:58:02.412Z,2.70
2019-04-03T07:59:03.309Z,4.50
2019-04-03T08:00:02.332Z,2.60
2019-04-03T08:01:02.504Z,3.60
2019-04-03T08:02:02.253Z,2.50
2019-04-03T08:03:02.209Z,2.50
2019-04-03T08:04:02.185Z,2.80
2019-04-03T08:05:02.132Z,2.60
2019-04-03T08:06:03.265Z,2.90
2019-04-03T08:07:02.047Z,2.80
2019-04-03T08:08:02.526Z,3.20
2019-04-03T08:09:08.812Z,3.00
2019-04-03T08:10:01.930Z,2.70
2019-04-03T08:11:02.541Z,2.70
2019-04-03T08:12:03.788Z,2.60
2019-04-03T08:13:01.848Z,2.60
2019-04-03T08:14:01.767Z,2.60
2019-04-03T08:15:01.743Z,2.40
2019-04-03T08:16:01.728Z,2.70
2019-04-03T08:17:01.651Z,2.50
2019-04-03T08:18:01.650Z,2.40
2019-04-03T08:19:01.570Z,2.30
2019-04-03T08:20:01.523Z,2.30
2019-04-03T08:21:02.260Z,2.30
2019-04-03T08:22:02.012Z,2.30
2019-04-03T08:23:01.415Z,2.50
2019-04-03T08:24:01.563Z,2.40
2019-04-03T08:25:01.329Z,2.50
2019-04-03T08:26:01.286Z,2.50
2019-04-03T08:27:01.589Z,2.50
2019-04-03T08:28:01.202Z,2.10
2019-04-03T08:29:01.817Z,2.70
2019-04-03T08:30:01.203Z,2.50
2019-04-03T08:31:01.085Z,2.40
2019-04-03T08:32:01.242Z,2.40
2019-04-03T08:33:01.001Z,2.20
2019-04-03T08:34:00.963Z,2.20
2019-04-03T08:35:03.872Z,2.30
2019-04-03T08:36:01.099Z,2.10
2019-04-03T08:37:02.064Z,2.10
2019-04-03T08:38:00.935Z,2.00
2019-04-03T08:39:00.768Z,2.40
2019-04-03T08:40:00.790Z,2.00
2019-04-03T08:41:03.075Z,1.70
2019-04-03T08:42:00.643Z,1.60
2019-04-03T08:43:01.162Z,1.70
2019-04-03T08:44:02.411Z,2.00
2019-04-03T08:45:00.527Z,1.50
2019-04-03T08:46:00.584Z,1.60
2019-04-03T08:47:00.450Z,2.00
2019-04-03T08:48:00.445Z,2.50
2019-04-03T08:49:00.439Z,2.20
2019-04-03T08:50:02.115Z,1.90
2019-04-03T08:51:02.290Z,2.00
2019-04-03T08:52:00.397Z,1.50
2019-04-03T08:53:00.202Z,1.80
2019-04-03T08:54:00.170Z,3.10
2019-04-03T08:55:00.418Z,1.80
2019-04-03T08:56:00.194Z,1.70
2019-04-03T08:57:00.114Z,1.70
2019-04-03T08:58:00.009Z,1.90
2019-04-03T08:58:59.967Z,2.10
2019-04-03T09:00:01.168Z,1.80
2019-04-03T09:00:59.897Z,2.10
2019-04-03T09:01:59.848Z,2.20
2019-04-03T09:03:00.061Z,2.40
2019-04-03T09:03:59.772Z,1.80
2019-04-03T09:05:00.030Z,1.80
2019-04-03T09:05:59.739Z,1.70
2019-04-03T09:06:59.651Z,2.20
2019-04-03T09:07:59.828Z,2.10
2019-04-03T09:08:59.572Z,2.40
2019-04-03T09:10:00.864Z,2.30
2019-04-03T09:10:59.628Z,3.00
2019-04-03T09:11:59.449Z,2.30
2019-04-03T09:12:59.411Z,2.90
2019-04-03T09:13:59.512Z,2.20
2019-04-03T09:14:59.333Z,2.80
2019-04-03T09:16:00.250Z,2.00
2019-04-03T09:17:00.900Z,2.30
2019-04-03T09:17:59.436Z,2.20
2019-04-03T09:18:59.173Z,2.70
2019-04-03T09:20:07.797Z,2.50
2019-04-03T09:22:03.538Z,2.50
2019-04-03T09:23:03.475Z,5.00
2019-04-03T09:24:03.607Z,2.50
2019-04-03T09:25:03.392Z,3.20
2019-04-03T09:26:03.843Z,3.50
2019-04-03T09:27:03.317Z,3.20
2019-04-03T09:28:03.284Z,2.80
2019-04-03T09:29:03.305Z,2.50
2019-04-03T09:30:03.192Z,2.80
2019-04-03T09:31:03.515Z,3.30
2019-04-03T09:32:03.115Z,2.60
2019-04-03T09:33:03.100Z,3.70
2019-04-03T09:34:03.225Z,2.50
2019-04-03T09:35:02.995Z,2.40
2019-04-03T09:36:04.428Z,2.40
2019-04-03T09:37:05.755Z,2.30
2019-04-03T09:50:22.978Z,3.00
2019-04-03T09:51:22.979Z,2.30
2019-04-03T09:52:23.577Z,2.20
2019-04-03T09:53:22.204Z,2.40
2019-04-03T09:54:22.161Z,2.30
2019-04-03T09:55:22.194Z,2.50
2019-04-03T09:56:22.272Z,3.20
2019-04-03T09:57:22.172Z,2.20
2019-04-03T09:58:21.992Z,2.70
2019-04-03T09:59:21.953Z,2.20
2019-04-03T10:00:21.910Z,3.30
2019-04-03T10:01:21.869Z,4.00
2019-04-03T10:02:21.937Z,2.70
2019-04-03T10:03:23.436Z,3.20
2019-04-03T10:04:21.750Z,2.20
2019-04-03T10:05:21.708Z,2.30
2019-04-03T10:06:22.023Z,2.20
2019-04-03T10:07:21.817Z,2.10
2019-04-03T10:08:21.604Z,2.70
2019-04-03T10:09:21.547Z,2.20
2019-04-03T10:10:21.504Z,2.40
2019-04-03T10:11:21.473Z,2.30
2019-04-03T10:12:22.724Z,2.10
2019-04-03T10:13:23.011Z,2.60
2019-04-03T10:14:21.353Z,3.40
2019-04-03T10:15:21.422Z,2.40
2019-04-03T10:16:21.267Z,3.60
2019-04-03T10:17:21.229Z,2.80
2019-04-03T10:18:22.156Z,2.50
2019-04-03T10:19:21.240Z,2.40
2019-04-03T10:20:21.108Z,2.40
2019-04-03T10:21:21.412Z,2.60
2019-04-03T10:22:21.862Z,2.90
2019-04-03T10:23:21.081Z,2.40
2019-04-03T10:24:21.103Z,2.50
2019-04-03T10:25:20.910Z,3.50
2019-04-03T10:26:20.873Z,3.50
2019-04-03T10:27:20.834Z,2.50
2019-04-03T10:28:21.067Z,3.10
2019-04-03T10:29:20.847Z,3.00
2019-04-03T10:30:21.979Z,2.30
2019-04-03T10:31:23.505Z,2.30
2019-04-03T10:32:20.631Z,2.40
2019-04-03T10:33:20.596Z,3.40
2019-04-03T10:34:20.556Z,2.30
2019-04-03T10:35:20.578Z,2.40
2019-04-03T10:36:20.584Z,2.50
2019-04-03T10:37:20.435Z,2.50
2019-04-03T10:38:20.703Z,4.20
2019-04-03T10:39:20.716Z,2.40
2019-04-03T10:40:23.621Z,3.40
2019-04-03T10:41:20.519Z,2.40
2019-04-03T10:42:20.313Z,3.30
2019-04-03T10:43:20.196Z,2.40
2019-04-03T10:44:20.472Z,2.40
2019-04-03T10:45:20.163Z,2.80
2019-04-03T10:46:20.110Z,3.10
2019-04-03T10:47:24.677Z,2.60
2019-04-03T10:48:20.004Z,2.60
2019-04-03T10:49:19.962Z,3.10
2019-04-03T10:50:19.924Z,2.90
2019-04-03T10:51:19.888Z,5.10
2019-04-03T10:52:19.849Z,2.90
2019-04-03T10:53:19.965Z,4.00
2019-04-03T10:54:19.957Z,2.40
2019-04-03T10:55:19.725Z,3.30
2019-04-03T10:56:19.917Z,3.60
2019-04-03T10:57:19.654Z,2.90
2019-04-03T10:58:19.609Z,2.50
2019-04-03T10:59:19.576Z,2.90
2019-04-03T11:00:19.866Z,2.60
2019-04-03T11:01:19.496Z,4.80
2019-04-03T11:02:19.666Z,2.70
2019-04-03T11:03:19.619Z,2.90
2019-04-03T11:04:19.752Z,2.70
2019-04-03T11:05:19.390Z,2.70
2019-04-03T11:06:19.302Z,3.30
2019-04-03T11:07:19.258Z,3.30
2019-04-03T11:08:19.384Z,2.70
2019-04-03T11:09:19.186Z,3.20
2019-04-03T11:10:19.145Z,3.10
2019-04-03T11:11:19.212Z,3.60
2019-04-03T11:12:19.071Z,4.40
2019-04-03T11:13:19.151Z,3.50
2019-04-03T11:14:18.992Z,3.50
2019-04-03T11:15:19.101Z,3.60
2019-04-03T11:16:18.911Z,3.80
2019-04-03T11:17:18.925Z,4.20
2019-04-03T11:18:20.873Z,4.10
2019-04-03T11:19:20.107Z,5.40
2019-04-03T11:20:18.762Z,5.10
2019-04-03T11:21:18.716Z,4.90
2019-04-03T11:22:19.047Z,3.90
2019-04-03T11:23:21.634Z,4.20
2019-04-03T11:24:19.022Z,4.80
2019-04-03T11:25:18.580Z,3.60
2019-04-03T11:26:19.685Z,4.70
2019-04-03T11:27:18.515Z,4.70
2019-04-03T11:28:18.447Z,5.20
2019-04-03T11:29:18.408Z,4.00
2019-04-03T11:30:21.738Z,5.00
2019-04-03T11:31:26.205Z,4.30
2019-04-03T11:32:18.598Z,4.10
2019-04-03T11:33:18.252Z,5.40
2019-04-03T11:34:18.576Z,4.90
2019-04-03T11:35:21.088Z,4.20
2019-04-03T11:36:18.132Z,4.10
2019-04-03T11:37:18.518Z,6.00
2019-04-03T11:38:27.503Z,4.10
2019-04-03T11:39:18.014Z,4.70
2019-04-03T11:40:18.673Z,3.90
2019-04-03T11:41:19.266Z,4.20
2019-04-03T11:42:24.302Z,3.80
2019-04-03T11:43:17.863Z,4.10
2019-04-03T11:44:17.882Z,4.20
2019-04-03T11:45:18.106Z,5.30
2019-04-03T11:46:17.746Z,6.60
2019-04-03T11:47:17.808Z,7.40
2019-04-03T11:48:17.879Z,5.60
2019-04-03T11:49:19.721Z,4.40
2019-04-03T11:50:18.039Z,4.10
2019-04-03T11:51:17.883Z,5.40
2019-04-03T11:52:17.519Z,4.30
2019-04-03T11:53:17.472Z,3.80
2019-04-03T11:54:17.438Z,4.80
2019-04-03T11:55:17.797Z,3.70
2019-04-03T11:56:17.356Z,4.20
2019-04-03T11:57:17.561Z,3.70
2019-04-03T11:58:17.998Z,4.30
2019-04-03T11:59:17.408Z,3.70
2019-04-03T12:00:17.198Z,3.50
2019-04-03T12:01:17.564Z,2.90
2019-04-03T12:02:17.149Z,2.70
2019-04-03T12:03:17.086Z,3.60
2019-04-03T12:04:17.044Z,2.50
2019-04-03T12:05:20.187Z,3.80
2019-04-03T12:06:19.686Z,2.60
2019-04-03T12:07:17.274Z,2.70
2019-04-03T12:08:17.352Z,2.90
2019-04-03T12:09:16.852Z,4.00
2019-04-03T12:10:16.851Z,3.90
2019-04-03T12:11:16.768Z,3.30
2019-04-03T12:12:16.747Z,3.60
2019-04-03T12:13:16.692Z,3.30
2019-04-03T12:14:17.127Z,4.10
2019-04-03T12:15:16.630Z,2.70
2019-04-03T12:16:16.578Z,3.70
2019-04-03T12:17:16.872Z,3.40
2019-04-03T12:18:16.524Z,2.70
2019-04-03T12:19:16.456Z,2.70
2019-04-03T12:20:16.567Z,2.90
2019-04-03T12:21:18.317Z,4.00
2019-04-03T12:22:16.390Z,3.10
2019-04-03T12:23:16.304Z,3.50
2019-04-03T12:24:16.263Z,2.90
2019-04-03T12:25:16.222Z,3.70
2019-04-03T12:26:16.623Z,3.10
2019-04-03T12:27:16.243Z,3.80
2019-04-03T12:28:18.424Z,3.10
2019-04-03T12:29:16.070Z,2.90
2019-04-03T12:30:16.153Z,3.10
2019-04-03T12:31:16.066Z,3.30
2019-04-03T12:32:16.192Z,2.90
2019-04-03T12:33:15.910Z,2.50
2019-04-03T12:34:16.147Z,3.90
2019-04-03T12:35:15.836Z,3.60
2019-04-03T12:36:15.887Z,4.00
2019-04-03T12:37:16.441Z,4.20
2019-04-03T12:38:16.034Z,2.70
2019-04-03T12:39:15.677Z,4.00
2019-04-03T12:40:15.820Z,2.60
2019-04-03T12:41:15.633Z,3.40
2019-04-03T12:42:17.047Z,3.30
2019-04-03T12:43:15.519Z,3.10
2019-04-03T12:44:15.570Z,3.70
2019-04-03T12:45:17.897Z,2.70
2019-04-03T12:46:15.400Z,3.90
2019-04-03T12:47:15.366Z,3.30
2019-04-03T12:48:17.386Z,3.90
2019-04-03T12:49:15.285Z,3.00
2019-04-03T12:50:15.249Z,2.80
2019-04-03T12:51:15.451Z,3.80
2019-04-03T12:52:15.261Z,4.60
2019-04-03T12:53:16.463Z,3.30
2019-04-03T12:54:15.085Z,2.80
2019-04-03T12:55:15.170Z,4.60
2019-04-03T12:56:15.012Z,3.80
2019-04-03T12:57:14.971Z,2.80
2019-04-03T12:58:14.931Z,3.00
2019-04-03T12:59:14.948Z,4.70
2019-04-03T13:00:14.854Z,3.60
2019-04-03T13:01:15.323Z,3.00
2019-04-03T13:02:14.793Z,3.40
2019-04-03T13:03:14.733Z,3.10
2019-04-03T13:04:14.696Z,3.80
2019-04-03T13:05:14.656Z,3.20
2019-04-03T13:06:14.882Z,2.70
2019-04-03T13:07:14.748Z,3.10
2019-04-03T13:08:14.540Z,3.00
2019-04-03T13:09:14.502Z,2.70
2019-04-03T13:10:14.463Z,5.10
2019-04-03T13:11:14.421Z,3.00
2019-04-03T13:12:14.386Z,3.20
2019-04-03T13:13:14.345Z,3.30
2019-04-03T13:14:23.769Z,3.10
2019-04-03T13:15:14.263Z,3.70
2019-04-03T13:16:14.226Z,3.80
2019-04-03T13:17:14.806Z,2.50
2019-04-03T13:18:14.146Z,3.00
2019-04-03T13:19:16.033Z,3.30
2019-04-03T13:20:14.432Z,2.80
2019-04-03T13:21:14.247Z,2.70
2019-04-03T13:22:13.994Z,3.10
2019-04-03T13:23:14.498Z,2.60
2019-04-03T13:24:16.075Z,4.60
2019-04-03T13:25:13.991Z,2.80
2019-04-03T13:26:14.279Z,5.30
2019-04-03T13:27:13.799Z,3.90
2019-04-03T13:28:13.765Z,3.40
2019-04-03T13:29:13.721Z,4.30
2019-04-03T13:30:13.935Z,3.40
2019-04-03T13:31:15.029Z,3.20
2019-04-03T13:32:16.213Z,3.00
2019-04-03T13:33:16.222Z,2.80
2019-04-03T13:34:13.533Z,3.20
2019-04-03T13:35:15.574Z,2.90
2019-04-03T13:36:13.715Z,2.30
2019-04-03T13:37:13.402Z,3.10
2019-04-03T13:38:13.780Z,2.70
2019-04-03T13:39:13.329Z,3.50
2019-04-03T13:40:13.411Z,12.30
2019-04-03T13:41:13.415Z,35.90
2019-04-03T13:42:14.061Z,29.50
2019-04-03T13:43:13.166Z,21.70
2019-04-03T13:44:13.510Z,4.00
2019-04-03T13:45:13.092Z,7.10